Terminal Aerodrome Forecast
Issued by NWS

Current Version | Previous Version | Text Only | Print | Product List | Glossary Off
Versions: 1 2 3 4 5 6 7 8 9 10 11 12 13 14 15 16

000
FTUS41 KPBZ 162116 AAA
TAFHLG
TAF AMD
KHLG 162116Z 1621/1718 15010KT P6SM -SHRA OVC035
     FM170200 16007KT P6SM -SHRA OVC025
     FM170800 19007KT 6SM -SHRA OVC012
     FM171000 21006KT 5SM -SHRA BR OVC008
     FM171500 26009KT P6SM BKN025=

USA.gov is the U.S. government's official web portal to all federal, state and local government web resources and services.